sensor_id;sensor_type;location;lat;lon;timestamp;P1;durP1;ratioP1;P2;durP2;ratioP2
11596;SDS011;5854;48.072;16.286;2022-09-12T00:02:03;2.15;;;1.60;;
11596;SDS011;5854;48.072;16.286;2022-09-12T00:04:30;3.60;;;2.05;;
11596;SDS011;5854;48.072;16.286;2022-09-12T00:06:58;3.17;;;1.75;;
11596;SDS011;5854;48.072;16.286;2022-09-12T00:09:25;1.60;;;1.42;;
11596;SDS011;5854;48.072;16.286;2022-09-12T00:11:52;2.28;;;1.85;;
11596;SDS011;5854;48.072;16.286;2022-09-12T00:14:19;1.67;;;1.55;;
11596;SDS011;5854;48.072;16.286;2022-09-12T00:16:47;3.03;;;2.28;;
11596;SDS011;5854;48.072;16.286;2022-09-12T00:19:16;1.85;;;1.75;;
11596;SDS011;5854;48.072;16.286;2022-09-12T00:21:43;2.42;;;1.42;;
11596;SDS011;5854;48.072;16.286;2022-09-12T00:24:11;2.55;;;1.67;;
11596;SDS011;5854;48.072;16.286;2022-09-12T00:26:38;2.78;;;1.90;;
11596;SDS011;5854;48.072;16.286;2022-09-12T00:29:05;2.20;;;2.05;;
11596;SDS011;5854;48.072;16.286;2022-09-12T00:31:32;1.80;;;1.70;;
11596;SDS011;5854;48.072;16.286;2022-09-12T00:34:01;2.90;;;1.88;;
11596;SDS011;5854;48.072;16.286;2022-09-12T00:36:28;2.15;;;1.80;;
11596;SDS011;5854;48.072;16.286;2022-09-12T00:38:56;1.60;;;1.50;;
11596;SDS011;5854;48.072;16.286;2022-09-12T00:41:25;2.80;;;1.55;;
11596;SDS011;5854;48.072;16.286;2022-09-12T00:43:55;2.28;;;2.08;;
11596;SDS011;5854;48.072;16.286;2022-09-12T00:46:26;2.70;;;1.52;;
11596;SDS011;5854;48.072;16.286;2022-09-12T00:49:02;2.08;;;1.95;;
11596;SDS011;5854;48.072;16.286;2022-09-12T00:51:36;2.60;;;1.75;;
11596;SDS011;5854;48.072;16.286;2022-09-12T00:54:05;3.25;;;1.77;;
11596;SDS011;5854;48.072;16.286;2022-09-12T00:56:37;4.03;;;2.38;;
11596;SDS011;5854;48.072;16.286;2022-09-12T00:59:07;3.28;;;2.10;;
11596;SDS011;5854;48.072;16.286;2022-09-12T01:01:39;1.77;;;1.67;;
11596;SDS011;5854;48.072;16.286;2022-09-12T01:04:09;3.75;;;1.65;;
11596;SDS011;5854;48.072;16.286;2022-09-12T01:06:39;2.22;;;2.00;;
11596;SDS011;5854;48.072;16.286;2022-09-12T01:09:08;1.80;;;1.70;;
11596;SDS011;5854;48.072;16.286;2022-09-12T01:11:42;3.05;;;1.70;;
11596;SDS011;5854;48.072;16.286;2022-09-12T01:14:11;1.83;;;1.73;;
11596;SDS011;5854;48.072;16.286;2022-09-12T01:16:39;2.28;;;2.08;;
11596;SDS011;5854;48.072;16.286;2022-09-12T01:19:13;3.85;;;2.17;;
11596;SDS011;5854;48.072;16.286;2022-09-12T01:22:18;3.35;;;2.50;;
11596;SDS011;5854;48.072;16.286;2022-09-12T01:25:00;3.33;;;2.58;;
11596;SDS011;5854;48.072;16.286;2022-09-12T01:27:47;3.13;;;1.70;;
11596;SDS011;5854;48.072;16.286;2022-09-12T01:30:39;2.53;;;2.33;;
11596;SDS011;5854;48.072;16.286;2022-09-12T01:33:15;2.30;;;2.10;;
11596;SDS011;5854;48.072;16.286;2022-09-12T01:36:05;2.17;;;2.00;;
11596;SDS011;5854;48.072;16.286;2022-09-12T01:38:55;4.53;;;2.38;;
11596;SDS011;5854;48.072;16.286;2022-09-12T01:41:27;1.67;;;1.58;;
11596;SDS011;5854;48.072;16.286;2022-09-12T01:44:08;3.22;;;2.13;;
11596;SDS011;5854;48.072;16.286;2022-09-12T01:46:46;4.63;;;2.33;;
11596;SDS011;5854;48.072;16.286;2022-09-12T01:49:20;2.50;;;2.33;;
11596;SDS011;5854;48.072;16.286;2022-09-12T01:51:54;2.97;;;2.63;;
11596;SDS011;5854;48.072;16.286;2022-09-12T01:54:26;3.03;;;2.50;;
11596;SDS011;5854;48.072;16.286;2022-09-12T01:57:03;2.53;;;2.28;;
11596;SDS011;5854;48.072;16.286;2022-09-12T01:59:37;3.00;;;2.40;;
11596;SDS011;5854;48.072;16.286;2022-09-12T02:02:11;3.45;;;2.75;;
11596;SDS011;5854;48.072;16.286;2022-09-12T02:04:42;3.08;;;2.60;;
11596;SDS011;5854;48.072;16.286;2022-09-12T02:07:17;2.58;;;2.40;;
11596;SDS011;5854;48.072;16.286;2022-09-12T02:12:19;2.30;;;2.10;;
11596;SDS011;5854;48.072;16.286;2022-09-12T02:14:50;3.17;;;2.67;;
11596;SDS011;5854;48.072;16.286;2022-09-12T02:17:26;3.30;;;3.05;;
11596;SDS011;5854;48.072;16.286;2022-09-12T02:20:03;3.10;;;2.83;;
11596;SDS011;5854;48.072;16.286;2022-09-12T02:22:36;3.87;;;3.10;;
11596;SDS011;5854;48.072;16.286;2022-09-12T02:25:05;2.80;;;2.60;;
11596;SDS011;5854;48.072;16.286;2022-09-12T02:27:36;2.78;;;2.63;;
11596;SDS011;5854;48.072;16.286;2022-09-12T02:30:07;3.38;;;3.08;;
11596;SDS011;5854;48.072;16.286;2022-09-12T02:32:41;3.78;;;3.38;;
11596;SDS011;5854;48.072;16.286;2022-09-12T02:35:19;6.10;;;3.22;;
11596;SDS011;5854;48.072;16.286;2022-09-12T02:37:56;3.65;;;3.40;;
11596;SDS011;5854;48.072;16.286;2022-09-12T02:40:29;3.47;;;3.13;;
11596;SDS011;5854;48.072;16.286;2022-09-12T02:42:58;4.03;;;2.97;;
11596;SDS011;5854;48.072;16.286;2022-09-12T02:45:26;3.15;;;2.83;;
11596;SDS011;5854;48.072;16.286;2022-09-12T02:47:58;4.75;;;3.10;;
11596;SDS011;5854;48.072;16.286;2022-09-12T02:50:29;3.17;;;2.80;;
11596;SDS011;5854;48.072;16.286;2022-09-12T02:52:57;4.00;;;2.80;;
11596;SDS011;5854;48.072;16.286;2022-09-12T02:55:28;5.57;;;3.03;;
11596;SDS011;5854;48.072;16.286;2022-09-12T02:57:58;4.47;;;3.30;;
11596;SDS011;5854;48.072;16.286;2022-09-12T03:00:27;2.78;;;2.58;;
11596;SDS011;5854;48.072;16.286;2022-09-12T03:03:13;4.38;;;2.53;;
11596;SDS011;5854;48.072;16.286;2022-09-12T03:06:07;3.58;;;3.22;;
11596;SDS011;5854;48.072;16.286;2022-09-12T03:08:50;3.63;;;2.60;;
11596;SDS011;5854;48.072;16.286;2022-09-12T03:11:29;2.47;;;2.28;;
11596;SDS011;5854;48.072;16.286;2022-09-12T03:14:17;5.13;;;2.95;;
11596;SDS011;5854;48.072;16.286;2022-09-12T03:17:02;3.00;;;2.70;;
11596;SDS011;5854;48.072;16.286;2022-09-12T03:19:42;5.93;;;2.60;;
11596;SDS011;5854;48.072;16.286;2022-09-12T03:22:20;3.35;;;2.92;;
11596;SDS011;5854;48.072;16.286;2022-09-12T03:24:55;4.18;;;3.10;;
11596;SDS011;5854;48.072;16.286;2022-09-12T03:27:32;3.38;;;2.75;;
11596;SDS011;5854;48.072;16.286;2022-09-12T03:30:03;2.58;;;2.38;;
11596;SDS011;5854;48.072;16.286;2022-09-12T03:32:41;3.22;;;2.92;;
11596;SDS011;5854;48.072;16.286;2022-09-12T03:35:11;2.85;;;2.65;;
11596;SDS011;5854;48.072;16.286;2022-09-12T03:37:41;3.10;;;2.90;;
11596;SDS011;5854;48.072;16.286;2022-09-12T03:40:09;3.67;;;2.63;;
11596;SDS011;5854;48.072;16.286;2022-09-12T03:42:37;2.42;;;2.22;;
11596;SDS011;5854;48.072;16.286;2022-09-12T03:45:04;3.63;;;2.80;;
11596;SDS011;5854;48.072;16.286;2022-09-12T03:47:34;4.10;;;2.65;;
11596;SDS011;5854;48.072;16.286;2022-09-12T03:50:02;3.25;;;3.03;;
11596;SDS011;5854;48.072;16.286;2022-09-12T03:52:32;2.80;;;2.60;;
11596;SDS011;5854;48.072;16.286;2022-09-12T03:54:59;2.47;;;2.28;;
11596;SDS011;5854;48.072;16.286;2022-09-12T03:57:26;2.60;;;2.40;;
11596;SDS011;5854;48.072;16.286;2022-09-12T03:59:53;3.97;;;2.78;;
11596;SDS011;5854;48.072;16.286;2022-09-12T04:02:22;5.93;;;3.10;;
11596;SDS011;5854;48.072;16.286;2022-09-12T04:04:49;3.78;;;2.90;;
11596;SDS011;5854;48.072;16.286;2022-09-12T04:07:17;2.67;;;2.58;;
11596;SDS011;5854;48.072;16.286;2022-09-12T04:09:45;2.83;;;2.63;;
11596;SDS011;5854;48.072;16.286;2022-09-12T04:12:13;2.97;;;2.78;;
11596;SDS011;5854;48.072;16.286;2022-09-12T04:14:41;3.22;;;3.03;;
11596;SDS011;5854;48.072;16.286;2022-09-12T04:17:08;4.90;;;2.67;;
11596;SDS011;5854;48.072;16.286;2022-09-12T04:19:38;3.17;;;2.88;;
11596;SDS011;5854;48.072;16.286;2022-09-12T04:22:05;3.97;;;3.10;;
11596;SDS011;5854;48.072;16.286;2022-09-12T04:24:33;3.22;;;2.45;;
11596;SDS011;5854;48.072;16.286;2022-09-12T04:27:01;2.90;;;2.70;;
11596;SDS011;5854;48.072;16.286;2022-09-12T04:29:29;3.05;;;2.75;;
11596;SDS011;5854;48.072;16.286;2022-09-12T04:31:56;3.55;;;2.97;;
11596;SDS011;5854;48.072;16.286;2022-09-12T04:34:23;3.67;;;3.42;;
11596;SDS011;5854;48.072;16.286;2022-09-12T04:36:51;2.85;;;2.65;;
11596;SDS011;5854;48.072;16.286;2022-09-12T04:39:18;5.20;;;4.90;;
11596;SDS011;5854;48.072;16.286;2022-09-12T04:41:46;3.38;;;3.08;;
11596;SDS011;5854;48.072;16.286;2022-09-12T04:44:15;3.70;;;3.40;;
11596;SDS011;5854;48.072;16.286;2022-09-12T04:46:43;5.32;;;3.03;;
11596;SDS011;5854;48.072;16.286;2022-09-12T04:49:12;2.88;;;2.67;;
11596;SDS011;5854;48.072;16.286;2022-09-12T04:51:43;4.90;;;2.45;;
11596;SDS011;5854;48.072;16.286;2022-09-12T04:54:11;3.47;;;3.28;;
11596;SDS011;5854;48.072;16.286;2022-09-12T04:56:41;2.63;;;2.42;;
11596;SDS011;5854;48.072;16.286;2022-09-12T04:59:10;5.90;;;3.10;;
11596;SDS011;5854;48.072;16.286;2022-09-12T05:01:41;7.47;;;3.95;;
11596;SDS011;5854;48.072;16.286;2022-09-12T05:04:08;3.40;;;3.10;;
11596;SDS011;5854;48.072;16.286;2022-09-12T05:06:37;3.50;;;3.20;;
11596;SDS011;5854;48.072;16.286;2022-09-12T05:09:06;3.38;;;3.10;;
11596;SDS011;5854;48.072;16.286;2022-09-12T05:11:38;2.83;;;2.55;;
11596;SDS011;5854;48.072;16.286;2022-09-12T05:14:08;3.67;;;3.38;;
11596;SDS011;5854;48.072;16.286;2022-09-12T05:16:36;4.47;;;3.42;;
11596;SDS011;5854;48.072;16.286;2022-09-12T05:19:04;4.40;;;2.90;;
11596;SDS011;5854;48.072;16.286;2022-09-12T05:21:33;3.72;;;3.33;;
11596;SDS011;5854;48.072;16.286;2022-09-12T05:24:00;2.97;;;2.60;;
11596;SDS011;5854;48.072;16.286;2022-09-12T05:26:30;4.90;;;3.55;;
11596;SDS011;5854;48.072;16.286;2022-09-12T05:28:57;4.13;;;3.78;;
11596;SDS011;5854;48.072;16.286;2022-09-12T05:31:25;3.28;;;3.00;;
11596;SDS011;5854;48.072;16.286;2022-09-12T05:33:54;4.05;;;3.63;;
11596;SDS011;5854;48.072;16.286;2022-09-12T05:36:24;3.78;;;2.97;;
11596;SDS011;5854;48.072;16.286;2022-09-12T05:38:53;2.95;;;2.75;;
11596;SDS011;5854;48.072;16.286;2022-09-12T05:41:21;7.28;;;4.78;;
11596;SDS011;5854;48.072;16.286;2022-09-12T05:43:51;5.38;;;3.38;;
11596;SDS011;5854;48.072;16.286;2022-09-12T05:46:20;3.42;;;3.13;;
11596;SDS011;5854;48.072;16.286;2022-09-12T05:48:49;4.28;;;3.80;;
11596;SDS011;5854;48.072;16.286;2022-09-12T05:51:19;3.83;;;2.83;;
11596;SDS011;5854;48.072;16.286;2022-09-12T05:56:20;2.40;;;2.28;;
11596;SDS011;5854;48.072;16.286;2022-09-12T05:58:51;3.35;;;3.03;;
11596;SDS011;5854;48.072;16.286;2022-09-12T06:01:20;2.70;;;2.40;;
11596;SDS011;5854;48.072;16.286;2022-09-12T06:03:49;3.97;;;3.20;;
11596;SDS011;5854;48.072;16.286;2022-09-12T06:06:19;7.75;;;3.35;;
11596;SDS011;5854;48.072;16.286;2022-09-12T06:08:52;6.53;;;2.85;;
11596;SDS011;5854;48.072;16.286;2022-09-12T06:11:23;7.13;;;3.58;;
11596;SDS011;5854;48.072;16.286;2022-09-12T06:13:52;2.90;;;2.70;;
11596;SDS011;5854;48.072;16.286;2022-09-12T06:16:22;3.58;;;2.70;;
11596;SDS011;5854;48.072;16.286;2022-09-12T06:18:52;2.67;;;2.15;;
11596;SDS011;5854;48.072;16.286;2022-09-12T06:21:21;4.95;;;3.75;;
11596;SDS011;5854;48.072;16.286;2022-09-12T06:23:52;3.47;;;3.03;;
11596;SDS011;5854;48.072;16.286;2022-09-12T06:26:19;4.00;;;2.63;;
11596;SDS011;5854;48.072;16.286;2022-09-12T06:28:49;4.13;;;2.78;;
11596;SDS011;5854;48.072;16.286;2022-09-12T06:31:19;2.60;;;2.40;;
11596;SDS011;5854;48.072;16.286;2022-09-12T06:33:49;12.90;;;4.97;;
11596;SDS011;5854;48.072;16.286;2022-09-12T06:36:18;2.70;;;2.50;;
11596;SDS011;5854;48.072;16.286;2022-09-12T06:38:52;2.53;;;2.33;;
11596;SDS011;5854;48.072;16.286;2022-09-12T06:41:20;2.58;;;2.38;;
11596;SDS011;5854;48.072;16.286;2022-09-12T06:43:48;2.97;;;2.10;;
11596;SDS011;5854;48.072;16.286;2022-09-12T06:46:15;7.15;;;2.92;;
11596;SDS011;5854;48.072;16.286;2022-09-12T06:48:43;3.25;;;2.95;;
11596;SDS011;5854;48.072;16.286;2022-09-12T06:51:11;4.50;;;2.35;;
11596;SDS011;5854;48.072;16.286;2022-09-12T06:53:39;2.53;;;2.28;;
11596;SDS011;5854;48.072;16.286;2022-09-12T06:56:10;2.65;;;2.15;;
11596;SDS011;5854;48.072;16.286;2022-09-12T06:58:39;3.70;;;2.30;;
11596;SDS011;5854;48.072;16.286;2022-09-12T07:01:08;2.60;;;2.40;;
11596;SDS011;5854;48.072;16.286;2022-09-12T07:03:38;6.28;;;1.88;;
11596;SDS011;5854;48.072;16.286;2022-09-12T07:06:07;2.90;;;2.70;;
11596;SDS011;5854;48.072;16.286;2022-09-12T07:08:36;4.70;;;2.63;;
11596;SDS011;5854;48.072;16.286;2022-09-12T07:11:08;2.53;;;2.33;;
11596;SDS011;5854;48.072;16.286;2022-09-12T07:13:39;4.38;;;2.33;;
11596;SDS011;5854;48.072;16.286;2022-09-12T07:16:09;3.25;;;2.83;;
11596;SDS011;5854;48.072;16.286;2022-09-12T07:18:37;3.50;;;3.20;;
11596;SDS011;5854;48.072;16.286;2022-09-12T07:21:06;2.88;;;2.67;;
11596;SDS011;5854;48.072;16.286;2022-09-12T07:23:35;5.50;;;2.90;;
11596;SDS011;5854;48.072;16.286;2022-09-12T07:26:04;2.63;;;2.42;;
11596;SDS011;5854;48.072;16.286;2022-09-12T07:28:33;3.22;;;2.30;;
11596;SDS011;5854;48.072;16.286;2022-09-12T07:31:04;3.20;;;2.20;;
11596;SDS011;5854;48.072;16.286;2022-09-12T07:33:32;6.53;;;2.72;;
11596;SDS011;5854;48.072;16.286;2022-09-12T07:36:00;6.63;;;2.55;;
11596;SDS011;5854;48.072;16.286;2022-09-12T07:38:28;4.82;;;2.72;;
11596;SDS011;5854;48.072;16.286;2022-09-12T07:40:56;3.17;;;2.83;;
11596;SDS011;5854;48.072;16.286;2022-09-12T07:43:23;6.72;;;4.20;;
11596;SDS011;5854;48.072;16.286;2022-09-12T07:45:55;3.13;;;2.55;;
11596;SDS011;5854;48.072;16.286;2022-09-12T07:48:22;7.30;;;2.58;;
11596;SDS011;5854;48.072;16.286;2022-09-12T07:50:56;3.15;;;2.95;;
11596;SDS011;5854;48.072;16.286;2022-09-12T07:53:24;3.33;;;3.03;;
11596;SDS011;5854;48.072;16.286;2022-09-12T07:55:52;3.08;;;2.78;;
11596;SDS011;5854;48.072;16.286;2022-09-12T07:58:20;4.05;;;3.08;;
11596;SDS011;5854;48.072;16.286;2022-09-12T08:00:47;4.75;;;3.17;;
11596;SDS011;5854;48.072;16.286;2022-09-12T08:03:16;4.68;;;3.10;;
11596;SDS011;5854;48.072;16.286;2022-09-12T08:05:43;3.72;;;3.42;;
11596;SDS011;5854;48.072;16.286;2022-09-12T08:08:10;3.63;;;2.72;;
11596;SDS011;5854;48.072;16.286;2022-09-12T08:10:37;4.60;;;3.08;;
11596;SDS011;5854;48.072;16.286;2022-09-12T08:13:05;2.60;;;2.40;;
11596;SDS011;5854;48.072;16.286;2022-09-12T08:15:33;3.70;;;3.42;;
11596;SDS011;5854;48.072;16.286;2022-09-12T08:18:01;5.13;;;3.47;;
11596;SDS011;5854;48.072;16.286;2022-09-12T08:20:29;2.97;;;2.78;;
11596;SDS011;5854;48.072;16.286;2022-09-12T08:22:57;4.18;;;2.80;;
11596;SDS011;5854;48.072;16.286;2022-09-12T08:25:24;3.95;;;3.13;;
11596;SDS011;5854;48.072;16.286;2022-09-12T08:27:51;4.25;;;2.35;;
11596;SDS011;5854;48.072;16.286;2022-09-12T08:30:18;5.40;;;2.60;;
11596;SDS011;5854;48.072;16.286;2022-09-12T08:32:45;3.17;;;2.88;;
11596;SDS011;5854;48.072;16.286;2022-09-12T08:35:12;3.30;;;3.00;;
11596;SDS011;5854;48.072;16.286;2022-09-12T08:37:41;3.10;;;2.83;;
11596;SDS011;5854;48.072;16.286;2022-09-12T08:40:09;3.22;;;2.90;;
11596;SDS011;5854;48.072;16.286;2022-09-12T08:42:44;2.42;;;2.28;;
11596;SDS011;5854;48.072;16.286;2022-09-12T08:45:21;3.55;;;2.60;;
11596;SDS011;5854;48.072;16.286;2022-09-12T08:47:55;4.78;;;2.63;;
11596;SDS011;5854;48.072;16.286;2022-09-12T08:50:22;7.43;;;2.42;;
11596;SDS011;5854;48.072;16.286;2022-09-12T08:52:52;4.80;;;2.38;;
11596;SDS011;5854;48.072;16.286;2022-09-12T08:55:25;3.67;;;2.38;;
11596;SDS011;5854;48.072;16.286;2022-09-12T08:57:57;2.95;;;2.38;;
11596;SDS011;5854;48.072;16.286;2022-09-12T09:00:26;4.35;;;2.50;;
11596;SDS011;5854;48.072;16.286;2022-09-12T09:06:43;2.25;;;1.98;;
11596;SDS011;5854;48.072;16.286;2022-09-12T09:09:58;7.80;;;2.20;;
11596;SDS011;5854;48.072;16.286;2022-09-12T09:12:39;2.20;;;1.92;;
11596;SDS011;5854;48.072;16.286;2022-09-12T09:15:24;2.58;;;1.63;;
11596;SDS011;5854;48.072;16.286;2022-09-12T09:18:08;3.17;;;1.70;;
11596;SDS011;5854;48.072;16.286;2022-09-12T09:20:44;2.03;;;1.90;;
11596;SDS011;5854;48.072;16.286;2022-09-12T09:23:15;2.10;;;1.90;;
11596;SDS011;5854;48.072;16.286;2022-09-12T09:25:51;2.10;;;1.67;;
11596;SDS011;5854;48.072;16.286;2022-09-12T09:28:24;3.10;;;1.95;;
11596;SDS011;5854;48.072;16.286;2022-09-12T09:30:59;1.73;;;1.63;;
11596;SDS011;5854;48.072;16.286;2022-09-12T09:33:27;3.30;;;1.80;;
11596;SDS011;5854;48.072;16.286;2022-09-12T09:36:01;2.42;;;1.80;;
11596;SDS011;5854;48.072;16.286;2022-09-12T09:38:41;3.85;;;1.90;;
11596;SDS011;5854;48.072;16.286;2022-09-12T09:41:21;3.13;;;1.98;;
11596;SDS011;5854;48.072;16.286;2022-09-12T09:44:03;2.10;;;1.73;;
11596;SDS011;5854;48.072;16.286;2022-09-12T09:46:32;3.00;;;1.80;;
11596;SDS011;5854;48.072;16.286;2022-09-12T09:49:00;3.20;;;2.03;;
11596;SDS011;5854;48.072;16.286;2022-09-12T09:51:31;2.03;;;1.83;;
11596;SDS011;5854;48.072;16.286;2022-09-12T09:54:02;2.15;;;1.98;;
11596;SDS011;5854;48.072;16.286;2022-09-12T09:56:40;2.95;;;1.83;;
11596;SDS011;5854;48.072;16.286;2022-09-12T09:59:09;1.73;;;1.63;;
11596;SDS011;5854;48.072;16.286;2022-09-12T10:01:42;2.10;;;1.60;;
11596;SDS011;5854;48.072;16.286;2022-09-12T10:04:16;1.50;;;1.40;;
11596;SDS011;5854;48.072;16.286;2022-09-12T10:06:45;3.13;;;1.88;;
11596;SDS011;5854;48.072;16.286;2022-09-12T10:09:17;2.58;;;2.00;;
11596;SDS011;5854;48.072;16.286;2022-09-12T10:11:49;1.92;;;1.80;;
11596;SDS011;5854;48.072;16.286;2022-09-12T10:14:26;3.42;;;1.73;;
11596;SDS011;5854;48.072;16.286;2022-09-12T10:19:52;2.85;;;2.00;;
11596;SDS011;5854;48.072;16.286;2022-09-12T10:22:22;4.57;;;2.03;;
11596;SDS011;5854;48.072;16.286;2022-09-12T10:30:17;5.63;;;1.27;;
11596;SDS011;5854;48.072;16.286;2022-09-12T10:32:49;4.43;;;1.75;;
11596;SDS011;5854;48.072;16.286;2022-09-12T10:35:27;1.75;;;1.42;;
11596;SDS011;5854;48.072;16.286;2022-09-12T10:45:40;1.88;;;1.77;;
11596;SDS011;5854;48.072;16.286;2022-09-12T10:48:21;2.28;;;2.08;;
11596;SDS011;5854;48.072;16.286;2022-09-12T10:50:53;1.35;;;1.20;;
11596;SDS011;5854;48.072;16.286;2022-09-12T10:53:22;3.90;;;1.70;;
11596;SDS011;5854;48.072;16.286;2022-09-12T10:55:57;2.03;;;1.58;;
11596;SDS011;5854;48.072;16.286;2022-09-12T11:04:19;3.38;;;1.73;;
11596;SDS011;5854;48.072;16.286;2022-09-12T11:07:00;1.80;;;1.70;;
11596;SDS011;5854;48.072;16.286;2022-09-12T11:09:45;4.22;;;1.67;;
11596;SDS011;5854;48.072;16.286;2022-09-12T11:12:19;1.88;;;1.77;;
11596;SDS011;5854;48.072;16.286;2022-09-12T11:15:00;4.80;;;2.03;;
11596;SDS011;5854;48.072;16.286;2022-09-12T11:17:51;1.63;;;1.52;;
11596;SDS011;5854;48.072;16.286;2022-09-12T11:20:41;1.73;;;1.63;;
11596;SDS011;5854;48.072;16.286;2022-09-12T11:23:30;2.50;;;1.88;;
11596;SDS011;5854;48.072;16.286;2022-09-12T11:26:25;1.98;;;1.65;;
11596;SDS011;5854;48.072;16.286;2022-09-12T11:29:20;1.90;;;1.70;;
11596;SDS011;5854;48.072;16.286;2022-09-12T11:32:20;1.63;;;1.52;;
11596;SDS011;5854;48.072;16.286;2022-09-12T11:35:21;2.25;;;2.05;;
11596;SDS011;5854;48.072;16.286;2022-09-12T11:38:08;3.47;;;1.50;;
11596;SDS011;5854;48.072;16.286;2022-09-12T11:40:53;2.53;;;1.90;;
11596;SDS011;5854;48.072;16.286;2022-09-12T11:43:27;3.60;;;1.92;;
11596;SDS011;5854;48.072;16.286;2022-09-12T11:46:05;1.73;;;1.35;;
11596;SDS011;5854;48.072;16.286;2022-09-12T11:48:43;2.00;;;1.90;;
11596;SDS011;5854;48.072;16.286;2022-09-12T11:51:19;1.50;;;1.40;;
11596;SDS011;5854;48.072;16.286;2022-09-12T11:53:57;3.58;;;1.40;;
11596;SDS011;5854;48.072;16.286;2022-09-12T11:56:30;2.63;;;1.92;;
11596;SDS011;5854;48.072;16.286;2022-09-12T11:59:03;1.75;;;1.60;;
11596;SDS011;5854;48.072;16.286;2022-09-12T12:01:38;1.92;;;1.77;;
11596;SDS011;5854;48.072;16.286;2022-09-12T12:04:10;1.52;;;1.42;;
11596;SDS011;5854;48.072;16.286;2022-09-12T12:06:42;1.73;;;1.40;;
11596;SDS011;5854;48.072;16.286;2022-09-12T12:09:16;1.75;;;1.65;;
11596;SDS011;5854;48.072;16.286;2022-09-12T12:11:44;7.60;;;1.65;;
11596;SDS011;5854;48.072;16.286;2022-09-12T12:14:16;1.55;;;1.45;;
11596;SDS011;5854;48.072;16.286;2022-09-12T12:19:23;1.95;;;1.73;;
11596;SDS011;5854;48.072;16.286;2022-09-12T12:22:06;1.70;;;1.60;;
11596;SDS011;5854;48.072;16.286;2022-09-12T12:25:01;2.25;;;1.48;;
11596;SDS011;5854;48.072;16.286;2022-09-12T12:27:46;3.58;;;1.52;;
11596;SDS011;5854;48.072;16.286;2022-09-12T12:36:46;1.50;;;1.40;;
11596;SDS011;5854;48.072;16.286;2022-09-12T12:57:31;2.75;;;1.70;;
11596;SDS011;5854;48.072;16.286;2022-09-12T13:00:25;1.65;;;1.48;;
11596;SDS011;5854;48.072;16.286;2022-09-12T13:02:58;1.35;;;1.10;;
11596;SDS011;5854;48.072;16.286;2022-09-12T13:05:28;1.98;;;1.08;;
11596;SDS011;5854;48.072;16.286;2022-09-12T13:08:05;1.35;;;1.25;;
11596;SDS011;5854;48.072;16.286;2022-09-12T13:10:36;1.15;;;1.00;;
11596;SDS011;5854;48.072;16.286;2022-09-12T13:13:05;1.65;;;1.20;;
11596;SDS011;5854;48.072;16.286;2022-09-12T13:15:47;1.38;;;1.10;;
11596;SDS011;5854;48.072;16.286;2022-09-12T13:18:18;2.20;;;1.17;;
11596;SDS011;5854;48.072;16.286;2022-09-12T13:20:53;1.10;;;1.00;;
11596;SDS011;5854;48.072;16.286;2022-09-12T13:23:28;1.63;;;1.30;;
11596;SDS011;5854;48.072;16.286;2022-09-12T13:25:58;2.17;;;1.30;;
11596;SDS011;5854;48.072;16.286;2022-09-12T13:28:29;2.10;;;1.13;;
11596;SDS011;5854;48.072;16.286;2022-09-12T13:30:58;2.25;;;1.40;;
11596;SDS011;5854;48.072;16.286;2022-09-12T13:36:09;1.60;;;1.00;;
11596;SDS011;5854;48.072;16.286;2022-09-12T13:39:04;2.20;;;1.20;;
11596;SDS011;5854;48.072;16.286;2022-09-12T13:44:57;2.42;;;1.20;;
11596;SDS011;5854;48.072;16.286;2022-09-12T13:47:30;2.03;;;1.30;;
11596;SDS011;5854;48.072;16.286;2022-09-12T13:50:00;2.80;;;1.30;;
11596;SDS011;5854;48.072;16.286;2022-09-12T13:52:30;1.27;;;1.10;;
11596;SDS011;5854;48.072;16.286;2022-09-12T13:55:01;1.00;;;0.90;;
11596;SDS011;5854;48.072;16.286;2022-09-12T13:57:34;2.60;;;1.45;;
11596;SDS011;5854;48.072;16.286;2022-09-12T14:00:10;1.98;;;1.77;;
11596;SDS011;5854;48.072;16.286;2022-09-12T14:02:44;3.60;;;1.27;;
11596;SDS011;5854;48.072;16.286;2022-09-12T14:05:13;1.25;;;1.15;;
11596;SDS011;5854;48.072;16.286;2022-09-12T14:07:48;3.90;;;1.80;;
11596;SDS011;5854;48.072;16.286;2022-09-12T14:10:25;6.28;;;1.20;;
11596;SDS011;5854;48.072;16.286;2022-09-12T14:12:55;2.08;;;1.25;;
11596;SDS011;5854;48.072;16.286;2022-09-12T14:15:26;1.50;;;1.40;;
11596;SDS011;5854;48.072;16.286;2022-09-12T14:17:57;1.30;;;1.17;;
11596;SDS011;5854;48.072;16.286;2022-09-12T14:20:26;1.50;;;1.10;;
11596;SDS011;5854;48.072;16.286;2022-09-12T14:22:58;1.38;;;1.20;;
11596;SDS011;5854;48.072;16.286;2022-09-12T14:25:27;1.02;;;1.00;;
11596;SDS011;5854;48.072;16.286;2022-09-12T14:28:05;1.20;;;1.10;;
11596;SDS011;5854;48.072;16.286;2022-09-12T14:30:38;1.58;;;1.20;;
11596;SDS011;5854;48.072;16.286;2022-09-12T14:33:16;3.22;;;1.17;;
11596;SDS011;5854;48.072;16.286;2022-09-12T14:35:46;1.40;;;1.20;;
11596;SDS011;5854;48.072;16.286;2022-09-12T14:38:18;1.58;;;1.13;;
11596;SDS011;5854;48.072;16.286;2022-09-12T14:40:51;1.95;;;1.10;;
11596;SDS011;5854;48.072;16.286;2022-09-12T14:43:25;4.97;;;1.67;;
11596;SDS011;5854;48.072;16.286;2022-09-12T14:45:57;1.63;;;1.52;;
11596;SDS011;5854;48.072;16.286;2022-09-12T14:50:55;5.47;;;1.55;;
11596;SDS011;5854;48.072;16.286;2022-09-12T14:53:24;2.38;;;1.33;;
11596;SDS011;5854;48.072;16.286;2022-09-12T14:56:03;2.28;;;1.50;;
11596;SDS011;5854;48.072;16.286;2022-09-12T14:58:34;1.60;;;1.30;;
11596;SDS011;5854;48.072;16.286;2022-09-12T15:01:20;3.42;;;1.35;;
11596;SDS011;5854;48.072;16.286;2022-09-12T15:03:50;1.83;;;1.63;;
11596;SDS011;5854;48.072;16.286;2022-09-12T15:06:21;2.08;;;1.60;;
11596;SDS011;5854;48.072;16.286;2022-09-12T15:08:53;2.55;;;1.63;;
11596;SDS011;5854;48.072;16.286;2022-09-12T15:11:23;3.92;;;1.40;;
11596;SDS011;5854;48.072;16.286;2022-09-12T15:13:50;2.08;;;1.50;;
11596;SDS011;5854;48.072;16.286;2022-09-12T15:16:19;1.75;;;1.30;;
11596;SDS011;5854;48.072;16.286;2022-09-12T15:18:46;7.22;;;1.30;;
11596;SDS011;5854;48.072;16.286;2022-09-12T15:21:15;1.77;;;1.20;;
11596;SDS011;5854;48.072;16.286;2022-09-12T15:23:44;1.20;;;1.08;;
11596;SDS011;5854;48.072;16.286;2022-09-12T15:26:15;1.50;;;1.40;;
11596;SDS011;5854;48.072;16.286;2022-09-12T15:28:44;4.25;;;1.50;;
11596;SDS011;5854;48.072;16.286;2022-09-12T15:31:23;1.77;;;1.50;;
11596;SDS011;5854;48.072;16.286;2022-09-12T15:33:54;1.63;;;1.33;;
11596;SDS011;5854;48.072;16.286;2022-09-12T15:36:22;1.08;;;0.98;;
11596;SDS011;5854;48.072;16.286;2022-09-12T15:38:50;1.77;;;1.38;;
11596;SDS011;5854;48.072;16.286;2022-09-12T15:41:19;1.35;;;1.20;;
11596;SDS011;5854;48.072;16.286;2022-09-12T15:43:48;1.20;;;1.05;;
11596;SDS011;5854;48.072;16.286;2022-09-12T15:46:16;1.15;;;1.05;;
11596;SDS011;5854;48.072;16.286;2022-09-12T15:48:46;1.70;;;1.05;;
11596;SDS011;5854;48.072;16.286;2022-09-12T15:51:14;1.60;;;1.10;;
11596;SDS011;5854;48.072;16.286;2022-09-12T15:53:43;1.65;;;1.10;;
11596;SDS011;5854;48.072;16.286;2022-09-12T15:56:12;1.40;;;1.30;;
11596;SDS011;5854;48.072;16.286;2022-09-12T15:58:40;4.03;;;1.50;;
11596;SDS011;5854;48.072;16.286;2022-09-12T16:01:08;5.93;;;1.17;;
11596;SDS011;5854;48.072;16.286;2022-09-12T16:03:37;2.83;;;1.50;;
11596;SDS011;5854;48.072;16.286;2022-09-12T16:06:05;7.05;;;1.33;;
11596;SDS011;5854;48.072;16.286;2022-09-12T16:08:35;1.23;;;1.00;;
11596;SDS011;5854;48.072;16.286;2022-09-12T16:11:02;2.50;;;1.42;;
11596;SDS011;5854;48.072;16.286;2022-09-12T16:13:34;2.90;;;1.30;;
11596;SDS011;5854;48.072;16.286;2022-09-12T16:16:01;3.70;;;1.30;;
11596;SDS011;5854;48.072;16.286;2022-09-12T16:18:29;3.63;;;1.17;;
11596;SDS011;5854;48.072;16.286;2022-09-12T16:20:56;2.90;;;1.20;;
11596;SDS011;5854;48.072;16.286;2022-09-12T16:23:25;3.70;;;1.08;;
11596;SDS011;5854;48.072;16.286;2022-09-12T16:25:55;2.25;;;1.40;;